Time;durP1;ratioP1;P1;durP2;ratioP2;P2;SDS_P1;SDS_P2;PMS_P1;PMS_P2;Temp;Humidity;BMP_temperature;BMP_pressure;BME280_temperature;BME280_humidity;BME280_pressure;Samples;Min_cycle;Max_cycle;Signal;HPM_P1;HPM_P2
2024/03/21 00:01:45;;;;;;;27.48;20.83;;;;;;;16.13;64.83;100073.72;6014684;23;20031;-89
2024/03/21 00:04:11;;;;;;;28.42;20.95;;;;;;;16.11;64.88;100073.81;6014627;23;20482;-89
2024/03/21 00:09:51;;;;;;;27.90;20.52;;;;;;;16.07;64.80;100059.09;6038287;23;20038;-89
2024/03/21 00:12:16;;;;;;;27.05;20.70;;;;;;;16.05;64.89;100062.81;6038366;23;20094;-89
2024/03/21 00:17:50;;;;;;;26.58;20.98;;;;;;;16.02;64.79;100066.56;6038251;23;20019;-89
2024/03/21 00:20:19;;;;;;;26.40;20.85;;;;;;;15.98;65.12;100065.97;6038389;23;20386;-89
2024/03/21 00:22:45;;;;;;;23.20;20.27;;;;;;;15.97;65.27;100055.44;6014614;23;20082;-89
2024/03/21 00:28:19;;;;;;;30.67;23.35;;;;;;;15.95;65.29;100058.22;6038322;23;20020;-89
2024/03/21 12:33:35;;;;;;;3.75;2.67;;;;;;;16.33;56.76;100611.50;6070266;23;20086;-90
2024/03/21 12:36:01;;;;;;;7.20;3.00;;;;;;;16.30;57.15;100619.69;6019522;23;20027;-92
2024/03/21 12:38:42;;;;;;;4.47;2.72;;;;;;;16.24;55.99;100628.94;6019542;23;20086;-90
2024/03/21 12:41:25;;;;;;;5.35;2.80;;;;;;;16.28;55.67;100619.81;6019513;23;20023;-91
2024/03/21 12:43:50;;;;;;;3.40;2.25;;;;;;;16.37;57.43;100620.97;6019236;23;20019;-89
2024/03/21 12:46:31;;;;;;;3.38;2.25;;;;;;;16.44;55.63;100631.19;6042982;23;20033;-90
2024/03/21 12:48:57;;;;;;;3.90;2.20;;;;;;;16.58;57.18;100636.41;6019501;23;20545;-89
2024/03/21 12:51:24;;;;;;;4.30;2.30;;;;;;;16.67;56.45;100637.56;6019160;23;20019;-92
2024/03/21 12:54:09;;;;;;;3.20;2.03;;;;;;;16.71;55.11;100646.22;6019181;23;20023;-89
2024/03/21 12:56:36;;;;;;;3.42;2.20;;;;;;;16.80;55.92;100630.47;6043013;23;20030;-89
2024/03/21 12:59:02;;;;;;;3.35;2.25;;;;;;;16.80;55.21;100629.63;6019219;23;20090;-89
2024/03/21 13:01:45;;;;;;;3.10;2.38;;;;;;;16.71;53.97;100631.09;6019200;23;20042;-89
2024/03/21 13:04:11;;;;;;;4.82;2.50;;;;;;;16.73;54.98;100631.84;6019178;23;20081;-92
2024/03/21 13:06:37;;;;;;;4.45;2.15;;;;;;;16.68;54.84;100628.66;6018890;23;20031;-89
2024/03/21 13:09:26;;;;;;;3.47;2.22;;;;;;;16.54;53.67;100638.44;6019122;23;20027;-90
2024/03/21 13:11:52;;;;;;;4.15;2.42;;;;;;;16.52;55.11;100635.03;6019052;23;20023;-92
2024/03/21 13:14:18;;;;;;;3.08;2.42;;;;;;;16.46;55.56;100634.59;6018210;23;20357;-92
2024/03/21 13:16:45;;;;;;;4.95;2.50;;;;;;;16.41;55.40;100632.25;6042706;23;20027;-89
2024/03/21 13:19:11;;;;;;;3.85;2.50;;;;;;;16.40;55.61;100622.56;6019179;23;20462;-92
2024/03/21 13:21:36;;;;;;;3.03;2.03;;;;;;;16.40;55.68;100623.44;6042746;23;20026;-89
2024/03/21 13:24:24;;;;;;;4.32;2.33;;;;;;;16.35;55.15;100627.34;6019132;23;20054;-92
2024/03/21 13:26:50;;;;;;;6.53;2.55;;;;;;;16.38;55.42;100633.28;6019249;23;20039;-91
2024/03/21 13:29:15;;;;;;;3.38;1.83;;;;;;;16.36;55.32;100629.03;6018896;23;20027;-91
2024/03/21 13:31:51;;;;;;;3.38;2.13;;;;;;;16.31;54.21;100631.16;6018889;23;20022;-91
2024/03/21 13:34:16;;;;;;;3.55;2.03;;;;;;;16.34;55.47;100634.44;6014181;23;20029;-91
2024/03/21 13:36:51;;;;;;;4.30;1.83;;;;;;;16.31;54.53;100624.06;6014353;23;20106;-91
2024/03/21 13:39:16;;;;;;;3.67;2.00;;;;;;;16.36;55.25;100623.72;6037948;23;20023;-92
2024/03/21 13:41:42;;;;;;;4.00;2.40;;;;;;;16.40;55.57;100614.59;6014399;23;20476;-91
2024/03/21 13:44:36;;;;;;;4.13;2.30;;;;;;;16.40;54.56;100618.13;6014192;23;20028;-91
2024/03/21 13:47:02;;;;;;;7.25;2.45;;;;;;;16.55;56.03;100604.72;6037884;23;20027;-91
2024/03/21 13:49:27;;;;;;;3.55;2.00;;;;;;;16.66;56.10;100606.63;6014231;23;20027;-91
2024/03/21 13:52:38;;;;;;;3.97;2.00;;;;;;;16.75;54.78;100603.34;6014146;23;20023;-91
2024/03/21 13:55:06;;;;;;;6.88;2.28;;;;;;;16.97;55.50;100612.47;6014218;23;20046;-91
2024/03/21 13:57:50;;;;;;;6.50;2.17;;;;;;;17.03;53.65;100608.53;6014232;23;20462;-91
2024/03/21 14:00:19;;;;;;;4.15;2.05;;;;;;;17.17;55.05;100605.78;6014190;23;20642;-91
2024/03/21 14:02:48;;;;;;;5.22;2.30;;;;;;;17.24;54.25;100602.69;6014085;23;20023;-91
2024/03/21 14:05:13;;;;;;;6.53;2.38;;;;;;;17.36;55.27;100600.94;6037769;23;20459;-91
2024/03/21 14:07:44;;;;;;;5.80;1.98;;;;;;;17.45;54.26;100595.81;6037677;23;20023;-91
2024/03/21 14:10:10;;;;;;;4.85;1.92;;;;;;;17.60;54.69;100587.66;6014115;23;20459;-91
2024/03/21 14:12:36;;;;;;;4.43;2.00;;;;;;;17.74;54.45;100586.63;6037715;23;20027;-91
2024/03/21 14:15:40;;;;;;;3.58;1.52;;;;;;;17.84;53.34;100592.97;6014113;23;20027;-91
2024/03/21 14:18:06;;;;;;;4.82;1.85;;;;;;;18.05;54.43;100587.00;6014735;23;20023;-92
2024/03/21 14:20:41;;;;;;;2.47;1.42;;;;;;;18.18;52.31;100583.44;6039408;23;20023;-91
2024/03/21 14:23:07;;;;;;;5.03;2.30;;;;;;;18.30;53.25;100589.63;6015760;23;20087;-92
2024/03/21 14:25:32;;;;;;;4.32;1.98;;;;;;;18.42;53.78;100593.16;6015810;23;20023;-89
2024/03/21 14:28:02;;;;;;;4.22;2.13;;;;;;;18.55;52.65;100593.94;6015606;23;20094;-92
2024/03/21 14:30:27;;;;;;;5.10;2.03;;;;;;;18.72;53.53;100592.63;6015663;23;20024;-92
2024/03/21 14:32:53;;;;;;;4.07;1.70;;;;;;;18.94;53.71;100595.41;6019750;23;20832;-92
2024/03/21 14:35:19;;;;;;;2.88;1.77;;;;;;;19.13;52.53;100600.16;6043921;23;20082;-93
2024/03/21 14:38:03;;;;;;;4.63;1.90;;;;;;;19.24;50.67;100591.28;6020321;23;20058;-91
2024/03/21 14:40:29;;;;;;;3.33;1.92;;;;;;;19.37;51.35;100601.84;6020292;23;20023;-92
2024/03/21 14:43:45;;;;;;;4.72;1.92;;;;;;;19.33;49.71;100600.41;6020199;23;20033;-92
2024/03/21 14:46:11;;;;;;;3.38;2.00;;;;;;;19.35;50.61;100595.75;6020328;23;20019;-92
2024/03/21 14:48:53;;;;;;;2.70;1.80;;;;;;;19.22;49.18;100590.59;6044090;23;20026;-92
2024/03/21 14:51:19;;;;;;;3.30;1.95;;;;;;;19.20;49.92;100588.03;6020228;23;20022;-91
2024/03/21 14:53:44;;;;;;;6.68;2.17;;;;;;;19.09;49.88;100583.56;6043928;23;20023;-91
2024/03/21 14:56:29;;;;;;;4.13;2.13;;;;;;;18.91;48.36;100571.66;6020333;23;20023;-92
2024/03/21 14:58:55;;;;;;;4.85;1.95;;;;;;;18.83;49.95;100564.25;6043750;23;20018;-92
2024/03/21 15:01:25;;;;;;;5.70;2.25;;;;;;;18.68;49.29;100568.97;6020044;23;20025;-92
2024/03/21 15:03:51;;;;;;;5.22;2.10;;;;;;;18.57;49.98;100573.34;6019957;23;20026;-92
2024/03/21 15:06:31;;;;;;;3.53;2.00;;;;;;;18.38;49.66;100571.25;6019995;23;20023;-91
2024/03/21 15:09:15;;;;;;;8.05;2.33;;;;;;;18.24;49.13;100572.31;6043851;23;20030;-92
2024/03/21 15:11:41;;;;;;;4.47;2.10;;;;;;;18.16;50.07;100583.56;6020019;23;20030;-92
2024/03/21 15:14:07;;;;;;;5.82;2.35;;;;;;;18.02;50.37;100584.56;6020076;23;20353;-92
2024/03/21 15:16:39;;;;;;;4.07;2.13;;;;;;;17.85;50.01;100575.19;6043645;23;20023;-91
2024/03/21 15:19:05;;;;;;;3.92;2.40;;;;;;;17.76;50.83;100584.69;6020197;23;20358;-91
2024/03/21 15:21:31;;;;;;;4.15;2.15;;;;;;;17.64;50.55;100589.13;6019844;23;20019;-91
2024/03/21 15:24:16;;;;;;;4.72;2.45;;;;;;;17.41;49.62;100583.69;6019987;23;20029;-91
2024/03/21 15:26:41;;;;;;;3.63;2.08;;;;;;;17.35;50.51;100583.28;6020091;23;20070;-92
2024/03/21 15:32:29;;;;;;;5.75;2.45;;;;;;;17.02;50.83;100567.81;6043417;23;20385;-92
2024/03/21 15:34:55;;;;;;;7.00;2.30;;;;;;;16.90;51.16;100572.16;6015021;23;20102;-91
2024/03/21 15:37:52;;;;;;;8.32;2.97;;;;;;;16.72;50.44;100569.00;6038708;23;20097;-91
2024/03/21 15:40:17;;;;;;;6.05;2.35;;;;;;;16.69;51.58;100574.53;6015095;23;20028;-91
2024/03/21 15:42:47;;;;;;;4.97;2.25;;;;;;;16.60;51.49;100578.66;6015121;23;20065;-92
2024/03/21 15:45:13;;;;;;;4.15;2.67;;;;;;;16.57;52.23;100575.38;6038571;23;20023;-91
2024/03/21 15:47:57;;;;;;;4.65;2.75;;;;;;;16.47;51.32;100575.16;6038666;23;20526;-92
2024/03/21 15:50:23;;;;;;;6.38;2.83;;;;;;;16.46;52.00;100581.44;6038496;23;20023;-91
2024/03/21 15:53:10;;;;;;;6.07;3.10;;;;;;;16.31;51.39;100573.56;6014961;23;20069;-91
2024/03/21 15:55:36;;;;;;;8.18;3.38;;;;;;;16.27;51.76;100566.78;6038687;23;20075;-92
2024/03/21 15:58:17;;;;;;;4.70;2.97;;;;;;;16.10;51.17;100573.19;6015157;23;20023;-92
2024/03/21 16:00:43;;;;;;;7.22;2.88;;;;;;;16.03;52.06;100564.81;6015096;23;20031;-91
2024/03/21 16:03:34;;;;;;;5.20;2.80;;;;;;;15.85;52.00;100557.09;6014802;23;20031;-91
2024/03/21 16:06:00;;;;;;;6.90;3.08;;;;;;;15.79;52.06;100546.88;6015098;23;20355;-91
2024/03/21 16:08:34;;;;;;;9.05;3.63;;;;;;;15.60;51.73;100537.50;6014714;23;20031;-91
2024/03/21 16:10:59;;;;;;;6.25;3.55;;;;;;;15.47;52.45;100526.81;6038290;23;20023;-91
2024/03/21 16:13:34;;;;;;;10.25;4.07;;;;;;;15.27;52.43;100530.78;6038266;23;20046;-91
2024/03/21 16:16:00;;;;;;;5.10;2.88;;;;;;;15.17;52.63;100534.97;6014750;23;20027;-92
2024/03/21 16:18:33;;;;;;;6.07;2.95;;;;;;;15.00;52.65;100536.03;6014899;23;20089;-91
2024/03/21 16:20:58;;;;;;;;;;;;;;;14.91;53.19;100546.25;6038956;23;20450;-91
2024/03/21 16:30:52;;;;;;;5.03;3.17;;;;;;;14.66;54.62;100560.16;6039917;23;20147;-91
2024/03/21 16:33:34;;;;;;;5.72;2.83;;;;;;;14.56;54.58;100559.88;6014655;23;20048;-91
2024/03/21 16:36:00;;;;;;;7.75;2.92;;;;;;;14.59;54.83;100546.44;6038398;23;20027;-91
2024/03/21 16:38:27;;;;;;;4.80;2.78;;;;;;;14.56;54.77;100558.09;6014671;23;20038;-91
2024/03/21 16:40:53;;;;;;;7.30;3.20;;;;;;;14.55;54.93;100550.22;6038284;23;20023;-90
2024/03/21 16:43:19;;;;;;;6.28;3.30;;;;;;;14.54;55.14;100545.88;6038381;23;20027;-91
2024/03/21 16:45:46;;;;;;;5.35;3.03;;;;;;;14.51;55.35;100543.41;6014741;23;20066;-91
2024/03/21 16:48:11;;;;;;;4.65;2.70;;;;;;;14.49;55.34;100534.69;6014518;23;20027;-91
2024/03/21 16:50:46;;;;;;;6.38;3.25;;;;;;;14.44;55.17;100548.22;6038101;23;20066;-91
2024/03/21 16:53:21;;;;;;;4.13;2.75;;;;;;;14.41;55.35;100557.22;6038105;23;20455;-91
2024/03/21 16:55:47;;;;;;;7.13;3.47;;;;;;;14.44;55.59;100545.59;6014760;23;20205;-91
2024/03/21 16:58:12;;;;;;;7.30;3.67;;;;;;;14.44;55.82;100553.53;6014573;23;20481;-91
2024/03/21 17:01:18;;;;;;;8.40;3.17;;;;;;;14.38;55.10;100548.59;6014733;23;20019;-91
2024/03/21 17:03:43;;;;;;;9.25;3.45;;;;;;;14.39;55.59;100545.84;6014390;23;20034;-92
2024/03/21 17:06:09;;;;;;;10.45;3.58;;;;;;;14.34;55.54;100547.94;6014380;23;20058;-90
2024/03/21 17:08:35;;;;;;;8.98;3.25;;;;;;;14.27;55.38;100551.88;6014431;23;20062;-90
2024/03/21 17:11:01;;;;;;;6.90;3.55;;;;;;;14.19;55.52;100560.28;6014447;23;20046;-91
2024/03/21 17:13:27;;;;;;;6.35;3.55;;;;;;;14.07;55.75;100546.84;6037844;23;20031;-91
2024/03/21 17:15:58;;;;;;;5.13;2.85;;;;;;;13.95;55.85;100544.94;6014333;23;20023;-91
2024/03/21 17:22:12;;;;;;;7.55;2.75;;;;;;;13.72;56.53;100540.97;6038973;23;20086;-91
2024/03/21 17:24:38;;;;;;;4.78;3.22;;;;;;;13.64;56.70;100536.97;6037794;23;20083;-91
2024/03/21 17:27:04;;;;;;;6.60;3.35;;;;;;;13.59;56.96;100549.59;6014270;23;20028;-91
2024/03/21 17:29:43;;;;;;;4.15;2.85;;;;;;;13.48;57.36;100550.22;6037871;23;20024;-91
2024/03/21 17:32:08;;;;;;;5.82;3.40;;;;;;;13.49;57.40;100548.44;6037731;23;20030;-94
2024/03/21 17:35:06;;;;;;;7.57;3.30;;;;;;;13.39;57.61;100546.25;6017500;23;20020;-91
2024/03/21 17:37:32;;;;;;;7.35;3.28;;;;;;;13.42;57.76;100546.09;6014031;23;20027;-91
2024/03/21 17:39:58;;;;;;;6.38;3.00;;;;;;;13.39;57.91;100546.25;6014044;23;20035;-91
2024/03/21 17:42:31;;;;;;;4.88;3.30;;;;;;;13.35;57.70;100546.53;6014063;23;20027;-91
2024/03/21 17:44:57;;;;;;;7.70;3.38;;;;;;;13.33;57.54;100533.38;6014126;23;20031;-91
2024/03/21 17:47:25;;;;;;;7.97;3.38;;;;;;;13.29;57.70;100537.13;6014041;23;20055;-91
2024/03/21 17:49:51;;;;;;;4.85;2.83;;;;;;;13.25;57.68;100536.47;6037618;23;20023;-91
2024/03/21 17:52:16;;;;;;;9.82;3.40;;;;;;;13.19;57.88;100539.44;6037619;23;20034;-91
2024/03/21 17:54:49;;;;;;;6.93;3.20;;;;;;;13.11;58.07;100536.34;6039676;23;20468;-91
2024/03/21 17:57:15;;;;;;;;;;;;;;;13.09;57.85;100525.03;6016382;23;20027;-91
2024/03/21 17:59:40;;;;;;;4.50;2.80;;;;;;;13.08;57.83;100532.09;6015872;23;19982;-91
2024/03/21 18:02:29;;;;;;;7.78;3.58;;;;;;;12.97;58.24;100534.50;6039449;23;20023;-91
2024/03/21 18:04:55;;;;;;;4.97;3.50;;;;;;;12.96;58.41;100538.91;6015695;23;20023;-91
2024/03/21 18:07:21;;;;;;;7.38;3.13;;;;;;;12.91;58.35;100535.69;6015871;23;20027;-91
2024/03/21 18:10:05;;;;;;;11.43;3.60;;;;;;;12.82;58.68;100536.19;6015873;23;20078;-91
2024/03/21 18:12:31;;;;;;;5.43;3.33;;;;;;;12.82;58.49;100539.66;6039400;23;20023;-91
2024/03/21 18:14:57;;;;;;;6.47;3.45;;;;;;;12.78;58.75;100540.75;6015802;23;20098;-91
2024/03/21 18:17:47;;;;;;;10.77;3.55;;;;;;;12.69;59.01;100539.47;6039218;23;20027;-91
2024/03/21 18:20:12;;;;;;;6.95;3.22;;;;;;;12.70;58.83;100535.88;6015772;23;20030;-91
2024/03/21 18:22:38;;;;;;;7.47;4.03;;;;;;;12.67;59.33;100532.56;6039176;23;20062;-91
2024/03/21 18:25:31;;;;;;;6.47;3.67;;;;;;;12.59;59.36;100530.31;6039358;23;20027;-90
2024/03/21 18:27:58;;;;;;;9.68;3.83;;;;;;;12.60;59.35;100529.41;6015673;23;20019;-91
2024/03/21 18:30:24;;;;;;;7.60;4.40;;;;;;;12.58;59.54;100544.47;6015492;23;20030;-91
